sensor_id;sensor_type;location;lat;lon;timestamp;pressure;altitude;pressure_sealevel;temperature;humidity
74372;BME280;62885;51.374;6.170;2023-03-23T00:00:48;100086.59;;;12.79;79.78
74372;BME280;62885;51.374;6.170;2023-03-23T00:03:13;100076.84;;;12.78;79.87
74372;BME280;62885;51.374;6.170;2023-03-23T00:05:39;100076.56;;;12.81;80.14
74372;BME280;62885;51.374;6.170;2023-03-23T00:08:07;100078.69;;;12.77;79.78
74372;BME280;62885;51.374;6.170;2023-03-23T00:10:35;100070.91;;;12.74;80.03
74372;BME280;62885;51.374;6.170;2023-03-23T00:13:00;100063.41;;;12.78;79.91
74372;BME280;62885;51.374;6.170;2023-03-23T00:15:29;100059.28;;;12.84;79.69
74372;BME280;62885;51.374;6.170;2023-03-23T00:17:59;100063.13;;;12.81;79.70
74372;BME280;62885;51.374;6.170;2023-03-23T00:20:31;100069.75;;;12.77;79.93
74372;BME280;62885;51.374;6.170;2023-03-23T00:23:05;100067.78;;;12.79;80.89
74372;BME280;62885;51.374;6.170;2023-03-23T00:25:32;100067.22;;;12.75;80.75
74372;BME280;62885;51.374;6.170;2023-03-23T00:27:57;100044.47;;;12.70;81.14
74372;BME280;62885;51.374;6.170;2023-03-23T00:30:22;100048.41;;;12.75;80.68
74372;BME280;62885;51.374;6.170;2023-03-23T00:32:48;100052.53;;;12.80;80.73
74372;BME280;62885;51.374;6.170;2023-03-23T00:35:13;100055.59;;;12.85;80.39
74372;BME280;62885;51.374;6.170;2023-03-23T00:37:39;100039.94;;;12.80;79.55
74372;BME280;62885;51.374;6.170;2023-03-23T00:40:04;100036.25;;;12.81;80.08
74372;BME280;62885;51.374;6.170;2023-03-23T00:42:34;100032.16;;;12.87;79.57
74372;BME280;62885;51.374;6.170;2023-03-23T00:45:03;100041.63;;;12.81;80.08
74372;BME280;62885;51.374;6.170;2023-03-23T00:47:35;100039.09;;;12.80;80.21
74372;BME280;62885;51.374;6.170;2023-03-23T00:50:02;100052.38;;;12.81;80.48
74372;BME280;62885;51.374;6.170;2023-03-23T00:52:28;100042.31;;;12.83;79.81
74372;BME280;62885;51.374;6.170;2023-03-23T00:54:53;100060.13;;;12.84;80.35
74372;BME280;62885;51.374;6.170;2023-03-23T00:57:18;100058.56;;;12.82;80.19
74372;BME280;62885;51.374;6.170;2023-03-23T00:59:44;100047.41;;;12.86;80.17
74372;BME280;62885;51.374;6.170;2023-03-23T01:02:10;100063.09;;;12.91;80.22
74372;BME280;62885;51.374;6.170;2023-03-23T01:04:38;100047.81;;;12.91;79.81
74372;BME280;62885;51.374;6.170;2023-03-23T01:07:04;100032.28;;;12.85;80.35
74372;BME280;62885;51.374;6.170;2023-03-23T01:09:29;100034.81;;;12.87;80.16
74372;BME280;62885;51.374;6.170;2023-03-23T01:11:55;100020.81;;;12.83;81.13
74372;BME280;62885;51.374;6.170;2023-03-23T01:14:21;100030.59;;;12.84;81.10
74372;BME280;62885;51.374;6.170;2023-03-23T01:16:46;100024.09;;;12.87;80.54
74372;BME280;62885;51.374;6.170;2023-03-23T01:19:12;100023.63;;;12.91;80.35
74372;BME280;62885;51.374;6.170;2023-03-23T01:21:38;100016.41;;;12.92;79.95
74372;BME280;62885;51.374;6.170;2023-03-23T01:24:03;100033.97;;;12.86;81.19
74372;BME280;62885;51.374;6.170;2023-03-23T01:26:29;100023.63;;;12.91;80.67
74372;BME280;62885;51.374;6.170;2023-03-23T01:28:55;100013.63;;;12.84;80.74
74372;BME280;62885;51.374;6.170;2023-03-23T01:31:23;100010.94;;;12.84;81.03
74372;BME280;62885;51.374;6.170;2023-03-23T01:33:50;100006.84;;;12.80;81.34
74372;BME280;62885;51.374;6.170;2023-03-23T01:36:19;99998.66;;;12.81;81.06
74372;BME280;62885;51.374;6.170;2023-03-23T01:38:48;100013.34;;;12.87;80.82
74372;BME280;62885;51.374;6.170;2023-03-23T01:41:16;100007.19;;;12.94;81.06
74372;BME280;62885;51.374;6.170;2023-03-23T01:43:59;100008.38;;;12.82;81.80
74372;BME280;62885;51.374;6.170;2023-03-23T01:46:28;100009.41;;;12.81;81.33
74372;BME280;62885;51.374;6.170;2023-03-23T01:48:56;100003.19;;;12.81;81.21
74372;BME280;62885;51.374;6.170;2023-03-23T01:51:24;100000.78;;;12.77;81.63
74372;BME280;62885;51.374;6.170;2023-03-23T01:53:55;99983.81;;;12.77;81.97
74372;BME280;62885;51.374;6.170;2023-03-23T01:56:24;99989.88;;;12.79;82.19
74372;BME280;62885;51.374;6.170;2023-03-23T01:58:52;99986.03;;;12.82;81.37
74372;BME280;62885;51.374;6.170;2023-03-23T02:01:19;99989.31;;;12.75;82.06
74372;BME280;62885;51.374;6.170;2023-03-23T02:03:46;99993.03;;;12.74;82.72
74372;BME280;62885;51.374;6.170;2023-03-23T02:06:13;99991.34;;;12.73;82.67
74372;BME280;62885;51.374;6.170;2023-03-23T02:08:40;99986.41;;;12.69;83.04
74372;BME280;62885;51.374;6.170;2023-03-23T02:11:16;99990.88;;;12.78;82.27
74372;BME280;62885;51.374;6.170;2023-03-23T02:13:43;99998.66;;;12.81;82.39
74372;BME280;62885;51.374;6.170;2023-03-23T02:16:23;99996.38;;;12.76;82.96
74372;BME280;62885;51.374;6.170;2023-03-23T02:19:31;99982.09;;;12.86;82.09
74372;BME280;62885;51.374;6.170;2023-03-23T02:24:52;99992.91;;;12.66;83.07
74372;BME280;62885;51.374;6.170;2023-03-23T02:27:39;99988.97;;;12.61;83.36
74372;BME280;62885;51.374;6.170;2023-03-23T02:35:44;99977.09;;;12.63;83.65
74372;BME280;62885;51.374;6.170;2023-03-23T02:38:21;99957.75;;;12.60;83.92
74372;BME280;62885;51.374;6.170;2023-03-23T02:40:49;99963.22;;;12.68;83.05
74372;BME280;62885;51.374;6.170;2023-03-23T02:43:23;99964.81;;;12.61;83.51
74372;BME280;62885;51.374;6.170;2023-03-23T02:45:50;99961.28;;;12.60;83.47
74372;BME280;62885;51.374;6.170;2023-03-23T02:48:20;99951.38;;;12.61;83.50
74372;BME280;62885;51.374;6.170;2023-03-23T02:50:50;99957.59;;;12.61;83.00
74372;BME280;62885;51.374;6.170;2023-03-23T02:53:23;99977.53;;;12.59;83.60
74372;BME280;62885;51.374;6.170;2023-03-23T02:55:50;99972.59;;;12.54;83.99
74372;BME280;62885;51.374;6.170;2023-03-23T02:58:18;99974.56;;;12.52;84.70
74372;BME280;62885;51.374;6.170;2023-03-23T03:00:45;99954.13;;;12.51;84.04
74372;BME280;62885;51.374;6.170;2023-03-23T03:03:16;99947.00;;;12.60;84.01
74372;BME280;62885;51.374;6.170;2023-03-23T03:08:24;99936.66;;;12.65;83.29
74372;BME280;62885;51.374;6.170;2023-03-23T03:11:05;99946.31;;;12.58;84.21
74372;BME280;62885;51.374;6.170;2023-03-23T03:13:59;99961.28;;;12.60;84.27
74372;BME280;62885;51.374;6.170;2023-03-23T03:16:33;99958.97;;;12.65;83.66
74372;BME280;62885;51.374;6.170;2023-03-23T03:19:15;99950.28;;;12.54;84.35
74372;BME280;62885;51.374;6.170;2023-03-23T03:21:45;99941.53;;;12.52;84.25
74372;BME280;62885;51.374;6.170;2023-03-23T03:24:15;99948.44;;;12.54;84.63
74372;BME280;62885;51.374;6.170;2023-03-23T03:26:42;99942.34;;;12.52;85.00
74372;BME280;62885;51.374;6.170;2023-03-23T03:29:18;99948.16;;;12.57;83.81
74372;BME280;62885;51.374;6.170;2023-03-23T03:31:45;99941.75;;;12.58;84.40
74372;BME280;62885;51.374;6.170;2023-03-23T03:34:13;99930.84;;;12.69;83.28
74372;BME280;62885;51.374;6.170;2023-03-23T03:36:43;99932.13;;;12.65;83.56
74372;BME280;62885;51.374;6.170;2023-03-23T03:39:12;99939.78;;;12.60;83.92
74372;BME280;62885;51.374;6.170;2023-03-23T03:41:38;99931.44;;;12.63;83.67
74372;BME280;62885;51.374;6.170;2023-03-23T03:44:04;99949.00;;;12.58;84.14
74372;BME280;62885;51.374;6.170;2023-03-23T03:46:31;99951.69;;;12.58;83.80
74372;BME280;62885;51.374;6.170;2023-03-23T03:48:57;99947.97;;;12.59;84.15
74372;BME280;62885;51.374;6.170;2023-03-23T03:51:24;99949.22;;;12.64;83.72
74372;BME280;62885;51.374;6.170;2023-03-23T03:53:50;99961.66;;;12.65;83.06
74372;BME280;62885;51.374;6.170;2023-03-23T03:56:15;99950.66;;;12.59;83.30
74372;BME280;62885;51.374;6.170;2023-03-23T03:58:41;99957.28;;;12.64;82.93
74372;BME280;62885;51.374;6.170;2023-03-23T04:01:08;99954.91;;;12.61;83.18
74372;BME280;62885;51.374;6.170;2023-03-23T04:03:36;99951.91;;;12.64;83.44
74372;BME280;62885;51.374;6.170;2023-03-23T04:06:02;99958.59;;;12.60;83.50
74372;BME280;62885;51.374;6.170;2023-03-23T04:08:28;99952.50;;;12.58;83.33
74372;BME280;62885;51.374;6.170;2023-03-23T04:10:53;99955.50;;;12.55;83.15
74372;BME280;62885;51.374;6.170;2023-03-23T04:13:19;99961.16;;;12.52;83.72
74372;BME280;62885;51.374;6.170;2023-03-23T04:15:46;99958.19;;;12.55;83.85
74372;BME280;62885;51.374;6.170;2023-03-23T04:18:12;99954.50;;;12.56;84.12
74372;BME280;62885;51.374;6.170;2023-03-23T04:20:40;99959.88;;;12.56;83.68
74372;BME280;62885;51.374;6.170;2023-03-23T04:23:06;99957.47;;;12.53;83.41
74372;BME280;62885;51.374;6.170;2023-03-23T04:25:31;99958.03;;;12.57;83.29
74372;BME280;62885;51.374;6.170;2023-03-23T04:27:58;99966.09;;;12.57;83.70
74372;BME280;62885;51.374;6.170;2023-03-23T04:30:27;99965.25;;;12.56;83.75
74372;BME280;62885;51.374;6.170;2023-03-23T04:32:54;99969.91;;;12.54;83.42
74372;BME280;62885;51.374;6.170;2023-03-23T04:35:22;99978.94;;;12.53;83.79
74372;BME280;62885;51.374;6.170;2023-03-23T04:37:49;99978.94;;;12.53;83.13
74372;BME280;62885;51.374;6.170;2023-03-23T04:40:16;99977.97;;;12.54;83.24
74372;BME280;62885;51.374;6.170;2023-03-23T04:42:43;99981.81;;;12.52;83.90
74372;BME280;62885;51.374;6.170;2023-03-23T04:45:13;99977.88;;;12.46;84.16
74372;BME280;62885;51.374;6.170;2023-03-23T04:47:40;99981.09;;;12.50;84.07
74372;BME280;62885;51.374;6.170;2023-03-23T04:50:11;99988.31;;;12.49;83.87
74372;BME280;62885;51.374;6.170;2023-03-23T04:52:39;99981.53;;;12.45;83.91
74372;BME280;62885;51.374;6.170;2023-03-23T04:55:09;99989.59;;;12.45;83.91
74372;BME280;62885;51.374;6.170;2023-03-23T04:57:35;99989.44;;;12.47;83.24
74372;BME280;62885;51.374;6.170;2023-03-23T05:00:05;99989.28;;;12.48;83.48
74372;BME280;62885;51.374;6.170;2023-03-23T05:02:35;99994.81;;;12.47;83.08
74372;BME280;62885;51.374;6.170;2023-03-23T05:05:01;100001.59;;;12.51;82.75
74372;BME280;62885;51.374;6.170;2023-03-23T05:07:26;99991.97;;;12.48;83.27
74372;BME280;62885;51.374;6.170;2023-03-23T05:09:51;99998.19;;;12.49;83.00
74372;BME280;62885;51.374;6.170;2023-03-23T05:12:17;99998.19;;;12.49;82.58
74372;BME280;62885;51.374;6.170;2023-03-23T05:14:43;100006.97;;;12.51;82.64
74372;BME280;62885;51.374;6.170;2023-03-23T05:17:08;99995.66;;;12.47;82.67
74372;BME280;62885;51.374;6.170;2023-03-23T05:19:35;100010.63;;;12.50;82.31
74372;BME280;62885;51.374;6.170;2023-03-23T05:22:01;100005.25;;;12.50;82.55
74372;BME280;62885;51.374;6.170;2023-03-23T05:24:31;100003.56;;;12.49;82.37
74372;BME280;62885;51.374;6.170;2023-03-23T05:26:58;100005.25;;;12.50;81.97
74372;BME280;62885;51.374;6.170;2023-03-23T05:29:24;99999.19;;;12.48;81.52
74372;BME280;62885;51.374;6.170;2023-03-23T05:31:51;99990.84;;;12.51;80.91
74372;BME280;62885;51.374;6.170;2023-03-23T05:34:18;100001.41;;;12.52;80.50
74372;BME280;62885;51.374;6.170;2023-03-23T05:36:43;100004.09;;;12.52;80.95
74372;BME280;62885;51.374;6.170;2023-03-23T05:39:11;99999.75;;;12.51;80.77
74372;BME280;62885;51.374;6.170;2023-03-23T05:41:36;100002.44;;;12.51;80.69
74372;BME280;62885;51.374;6.170;2023-03-23T05:44:02;100003.44;;;12.50;80.72
74372;BME280;62885;51.374;6.170;2023-03-23T05:46:28;100005.13;;;12.51;80.39
74372;BME280;62885;51.374;6.170;2023-03-23T05:48:54;100004.41;;;12.49;80.55
74372;BME280;62885;51.374;6.170;2023-03-23T05:51:19;100013.00;;;12.53;79.74
74372;BME280;62885;51.374;6.170;2023-03-23T05:53:45;100009.19;;;12.55;79.71
74372;BME280;62885;51.374;6.170;2023-03-23T05:56:11;100012.03;;;12.54;79.72
74372;BME280;62885;51.374;6.170;2023-03-23T05:58:36;100011.03;;;12.55;79.48
74372;BME280;62885;51.374;6.170;2023-03-23T06:01:06;100006.78;;;12.52;79.80
74372;BME280;62885;51.374;6.170;2023-03-23T06:03:31;100005.81;;;12.53;79.52
74372;BME280;62885;51.374;6.170;2023-03-23T06:05:57;100016.28;;;12.56;78.95
74372;BME280;62885;51.374;6.170;2023-03-23T06:08:23;100006.38;;;12.57;78.74
74372;BME280;62885;51.374;6.170;2023-03-23T06:10:49;100009.06;;;12.57;78.65
74372;BME280;62885;51.374;6.170;2023-03-23T06:13:15;100006.38;;;12.57;78.08
74372;BME280;62885;51.374;6.170;2023-03-23T06:15:41;100002.41;;;12.61;78.22
74372;BME280;62885;51.374;6.170;2023-03-23T06:18:06;100001.41;;;12.62;78.25
74372;BME280;62885;51.374;6.170;2023-03-23T06:20:32;100006.78;;;12.62;77.98
74372;BME280;62885;51.374;6.170;2023-03-23T06:22:58;100009.16;;;12.65;77.57
74372;BME280;62885;51.374;6.170;2023-03-23T06:25:23;100010.16;;;12.64;77.05
74372;BME280;62885;51.374;6.170;2023-03-23T06:27:49;100009.03;;;12.66;77.25
74372;BME280;62885;51.374;6.170;2023-03-23T06:30:17;100014.25;;;12.68;77.19
74372;BME280;62885;51.374;6.170;2023-03-23T06:32:43;100017.78;;;12.68;76.71
74372;BME280;62885;51.374;6.170;2023-03-23T06:35:11;100031.22;;;12.68;77.08
74372;BME280;62885;51.374;6.170;2023-03-23T06:37:37;100032.91;;;12.69;76.84
74372;BME280;62885;51.374;6.170;2023-03-23T06:40:03;100028.53;;;12.68;76.97
74372;BME280;62885;51.374;6.170;2023-03-23T06:42:31;100036.59;;;12.68;76.27
74372;BME280;62885;51.374;6.170;2023-03-23T06:44:57;100051.84;;;12.68;77.21
74372;BME280;62885;51.374;6.170;2023-03-23T06:47:24;100052.00;;;12.66;76.36
74372;BME280;62885;51.374;6.170;2023-03-23T06:49:49;100051.84;;;12.68;76.55
74372;BME280;62885;51.374;6.170;2023-03-23T06:52:15;100050.28;;;12.65;76.30
74372;BME280;62885;51.374;6.170;2023-03-23T06:54:40;100055.38;;;12.68;76.93
74372;BME280;62885;51.374;6.170;2023-03-23T06:57:07;100072.19;;;12.70;76.52
74372;BME280;62885;51.374;6.170;2023-03-23T06:59:32;100078.41;;;12.71;76.64
74372;BME280;62885;51.374;6.170;2023-03-23T07:01:57;100072.03;;;12.72;76.79
74372;BME280;62885;51.374;6.170;2023-03-23T07:04:23;100074.72;;;12.72;76.94
74372;BME280;62885;51.374;6.170;2023-03-23T07:06:49;100071.78;;;12.75;76.50
74372;BME280;62885;51.374;6.170;2023-03-23T07:09:14;100052.66;;;12.78;76.06
74372;BME280;62885;51.374;6.170;2023-03-23T07:11:40;100063.13;;;12.81;76.36
74372;BME280;62885;51.374;6.170;2023-03-23T07:14:06;100068.91;;;12.86;76.00
74372;BME280;62885;51.374;6.170;2023-03-23T07:16:32;100061.13;;;12.83;76.11
74372;BME280;62885;51.374;6.170;2023-03-23T07:18:58;100061.69;;;12.87;76.26
74372;BME280;62885;51.374;6.170;2023-03-23T07:21:24;100066.03;;;12.88;75.72
74372;BME280;62885;51.374;6.170;2023-03-23T07:23:49;100055.75;;;12.83;75.90
74372;BME280;62885;51.374;6.170;2023-03-23T07:26:14;100071.31;;;12.80;75.82
74372;BME280;62885;51.374;6.170;2023-03-23T07:28:40;100058.03;;;12.78;76.28
74372;BME280;62885;51.374;6.170;2023-03-23T07:31:05;100065.66;;;12.83;76.16
74372;BME280;62885;51.374;6.170;2023-03-23T07:33:33;100070.75;;;12.86;75.64
74372;BME280;62885;51.374;6.170;2023-03-23T07:35:59;100075.25;;;12.85;75.88
74372;BME280;62885;51.374;6.170;2023-03-23T07:38:26;100071.59;;;12.86;75.67
74372;BME280;62885;51.374;6.170;2023-03-23T07:40:53;100076.66;;;12.89;76.21
74372;BME280;62885;51.374;6.170;2023-03-23T07:43:18;100084.31;;;12.84;75.79
74372;BME280;62885;51.374;6.170;2023-03-23T07:45:45;100077.81;;;12.87;76.13
74372;BME280;62885;51.374;6.170;2023-03-23T07:48:11;100066.22;;;12.86;76.18
74372;BME280;62885;51.374;6.170;2023-03-23T07:50:37;100072.84;;;12.82;75.95
74372;BME280;62885;51.374;6.170;2023-03-23T07:53:03;100079.94;;;12.83;75.75
74372;BME280;62885;51.374;6.170;2023-03-23T07:55:28;100072.19;;;12.80;75.83
74372;BME280;62885;51.374;6.170;2023-03-23T07:57:54;100090.66;;;12.83;75.65
74372;BME280;62885;51.374;6.170;2023-03-23T08:00:21;100087.31;;;12.81;75.68
74372;BME280;62885;51.374;6.170;2023-03-23T08:02:56;100089.94;;;12.91;75.38
74372;BME280;62885;51.374;6.170;2023-03-23T08:05:23;100086.09;;;12.93;75.05
74372;BME280;62885;51.374;6.170;2023-03-23T08:07:50;100076.22;;;12.94;74.96
74372;BME280;62885;51.374;6.170;2023-03-23T08:10:17;100082.28;;;12.96;74.91
74372;BME280;62885;51.374;6.170;2023-03-23T08:12:43;100076.47;;;13.00;74.73
74372;BME280;62885;51.374;6.170;2023-03-23T08:15:11;100085.78;;;13.06;74.58
74372;BME280;62885;51.374;6.170;2023-03-23T08:17:38;100085.09;;;13.04;74.66
74372;BME280;62885;51.374;6.170;2023-03-23T08:20:04;100087.34;;;13.08;74.49
74372;BME280;62885;51.374;6.170;2023-03-23T08:22:34;100081.94;;;13.18;74.51
74372;BME280;62885;51.374;6.170;2023-03-23T08:25:02;100092.09;;;13.24;73.99
74372;BME280;62885;51.374;6.170;2023-03-23T08:27:28;100086.13;;;13.30;73.80
74372;BME280;62885;51.374;6.170;2023-03-23T08:29:53;100096.50;;;13.25;73.33
74372;BME280;62885;51.374;6.170;2023-03-23T08:32:19;100087.78;;;13.13;73.83
74372;BME280;62885;51.374;6.170;2023-03-23T08:34:44;100092.28;;;13.13;73.91
74372;BME280;62885;51.374;6.170;2023-03-23T08:37:10;100103.16;;;13.11;73.86
74372;BME280;62885;51.374;6.170;2023-03-23T08:39:35;100106.28;;;13.07;74.02
74372;BME280;62885;51.374;6.170;2023-03-23T08:42:00;100099.53;;;13.03;75.36
74372;BME280;62885;51.374;6.170;2023-03-23T08:44:26;100115.25;;;12.98;76.01
74372;BME280;62885;51.374;6.170;2023-03-23T08:46:51;100127.84;;;12.88;77.76
74372;BME280;62885;51.374;6.170;2023-03-23T08:49:22;100160.97;;;12.79;78.02
74372;BME280;62885;51.374;6.170;2023-03-23T08:51:47;100175.00;;;12.34;81.83
74372;BME280;62885;51.374;6.170;2023-03-23T08:54:13;100159.25;;;11.91;83.53
74372;BME280;62885;51.374;6.170;2023-03-23T08:56:38;100158.94;;;11.75;85.35
74372;BME280;62885;51.374;6.170;2023-03-23T08:59:03;100163.13;;;11.68;85.87
74372;BME280;62885;51.374;6.170;2023-03-23T09:01:29;100173.97;;;11.57;87.83
74372;BME280;62885;51.374;6.170;2023-03-23T09:03:54;100172.81;;;11.49;88.79
74372;BME280;62885;51.374;6.170;2023-03-23T09:06:19;100183.22;;;11.43;87.64
74372;BME280;62885;51.374;6.170;2023-03-23T09:08:45;100192.38;;;11.40;87.33
74372;BME280;62885;51.374;6.170;2023-03-23T09:11:11;100202.25;;;11.40;88.09
74372;BME280;62885;51.374;6.170;2023-03-23T09:13:37;100201.66;;;11.36;88.31
74372;BME280;62885;51.374;6.170;2023-03-23T09:16:05;100205.03;;;11.29;88.73
74372;BME280;62885;51.374;6.170;2023-03-23T09:18:31;100205.59;;;11.32;88.75
74372;BME280;62885;51.374;6.170;2023-03-23T09:20:58;100208.50;;;11.20;88.97
74372;BME280;62885;51.374;6.170;2023-03-23T09:23:24;100218.56;;;11.27;89.68
74372;BME280;62885;51.374;6.170;2023-03-23T09:25:50;100219.81;;;11.23;88.37
74372;BME280;62885;51.374;6.170;2023-03-23T09:28:17;100218.69;;;11.26;88.23
74372;BME280;62885;51.374;6.170;2023-03-23T09:30:43;100213.50;;;11.34;87.82
74372;BME280;62885;51.374;6.170;2023-03-23T09:33:09;100212.53;;;11.35;87.94
74372;BME280;62885;51.374;6.170;2023-03-23T09:35:35;100212.91;;;11.30;86.75
74372;BME280;62885;51.374;6.170;2023-03-23T09:38:05;100211.56;;;11.15;86.57
74372;BME280;62885;51.374;6.170;2023-03-23T09:40:56;100220.34;;;11.17;87.13
74372;BME280;62885;51.374;6.170;2023-03-23T09:46:30;100224.00;;;10.95;86.84
74372;BME280;62885;51.374;6.170;2023-03-23T09:49:23;100215.94;;;10.95;87.06
74372;BME280;62885;51.374;6.170;2023-03-23T09:54:25;100226.28;;;11.00;87.89
74372;BME280;62885;51.374;6.170;2023-03-23T09:56:51;100231.84;;;10.87;87.92
74372;BME280;62885;51.374;6.170;2023-03-23T09:59:37;100232.19;;;10.94;88.19
74372;BME280;62885;51.374;6.170;2023-03-23T10:07:17;100237.44;;;10.84;88.85
74372;BME280;62885;51.374;6.170;2023-03-23T10:09:48;100223.16;;;10.95;88.68
74372;BME280;62885;51.374;6.170;2023-03-23T10:15:11;100226.03;;;11.03;88.91
74372;BME280;62885;51.374;6.170;2023-03-23T10:23:35;100226.72;;;11.26;88.47
74372;BME280;62885;51.374;6.170;2023-03-23T10:26:43;100223.06;;;11.27;88.21
74372;BME280;62885;51.374;6.170;2023-03-23T10:29:22;100230.81;;;11.50;87.59
74372;BME280;62885;51.374;6.170;2023-03-23T10:31:58;100226.72;;;11.56;88.09
74372;BME280;62885;51.374;6.170;2023-03-23T10:34:32;100230.69;;;11.52;88.37
74372;BME280;62885;51.374;6.170;2023-03-23T10:37:09;100238.00;;;11.50;86.99
74372;BME280;62885;51.374;6.170;2023-03-23T10:39:56;100235.81;;;11.34;87.13
74372;BME280;62885;51.374;6.170;2023-03-23T10:42:30;100236.47;;;11.27;87.94
74372;BME280;62885;51.374;6.170;2023-03-23T10:44:59;100234.19;;;11.22;88.62
74372;BME280;62885;51.374;6.170;2023-03-23T10:47:25;100237.56;;;11.24;89.62
74372;BME280;62885;51.374;6.170;2023-03-23T10:49:57;100244.91;;;11.22;89.09
74372;BME280;62885;51.374;6.170;2023-03-23T10:52:36;100239.19;;;11.36;89.54
74372;BME280;62885;51.374;6.170;2023-03-23T10:55:08;100254.16;;;11.39;88.81
74372;BME280;62885;51.374;6.170;2023-03-23T10:57:38;100251.16;;;11.32;89.64
74372;BME280;62885;51.374;6.170;2023-03-23T11:00:28;100257.94;;;11.36;90.58
74372;BME280;62885;51.374;6.170;2023-03-23T11:03:03;100247.22;;;11.36;90.49
74372;BME280;62885;51.374;6.170;2023-03-23T11:05:53;100242.78;;;11.46;90.78
74372;BME280;62885;51.374;6.170;2023-03-23T11:08:20;100241.88;;;11.67;89.87
74372;BME280;62885;51.374;6.170;2023-03-23T11:10:56;100244.06;;;11.82;89.62
74372;BME280;62885;51.374;6.170;2023-03-23T11:13:30;100227.38;;;12.09;88.75
74372;BME280;62885;51.374;6.170;2023-03-23T11:15:55;100242.78;;;12.17;88.46
74372;BME280;62885;51.374;6.170;2023-03-23T11:18:23;100237.25;;;12.09;88.02
74372;BME280;62885;51.374;6.170;2023-03-23T11:20:52;100233.09;;;11.95;88.75
74372;BME280;62885;51.374;6.170;2023-03-23T11:23:30;100227.63;;;12.06;88.85
74372;BME280;62885;51.374;6.170;2023-03-23T11:26:14;100223.41;;;12.04;88.66
74372;BME280;62885;51.374;6.170;2023-03-23T11:31:23;100229.50;;;12.25;88.87
74372;BME280;62885;51.374;6.170;2023-03-23T11:36:36;100232.06;;;12.17;87.77
74372;BME280;62885;51.374;6.170;2023-03-23T11:39:03;100227.66;;;12.35;88.23
74372;BME280;62885;51.374;6.170;2023-03-23T11:41:44;100230.22;;;12.27;88.08
74372;BME280;62885;51.374;6.170;2023-03-23T11:44:11;100241.25;;;12.33;88.21
74372;BME280;62885;51.374;6.170;2023-03-23T11:49:20;100236.44;;;12.37;87.25
74372;BME280;62885;51.374;6.170;2023-03-23T11:51:54;100247.19;;;12.37;88.13
74372;BME280;62885;51.374;6.170;2023-03-23T11:56:52;100238.66;;;12.13;87.96
74372;BME280;62885;51.374;6.170;2023-03-23T11:59:26;100231.03;;;12.08;88.17
74372;BME280;62885;51.374;6.170;2023-03-23T12:06:13;100244.22;;;12.50;86.69
74372;BME280;62885;51.374;6.170;2023-03-23T12:11:31;100254.69;;;12.43;87.11
74372;BME280;62885;51.374;6.170;2023-03-23T12:17:00;100256.25;;;12.55;86.64
74372;BME280;62885;51.374;6.170;2023-03-23T12:19:38;100250.44;;;12.60;86.50
74372;BME280;62885;51.374;6.170;2023-03-23T12:27:38;100244.38;;;12.67;87.41
74372;BME280;62885;51.374;6.170;2023-03-23T12:33:18;100245.50;;;12.94;85.94
74372;BME280;62885;51.374;6.170;2023-03-23T12:41:17;100227.78;;;13.39;85.66
74372;BME280;62885;51.374;6.170;2023-03-23T12:49:38;100214.69;;;13.81;82.90
74372;BME280;62885;51.374;6.170;2023-03-23T12:55:03;100205.22;;;14.05;82.09
74372;BME280;62885;51.374;6.170;2023-03-23T12:57:39;100191.06;;;13.75;80.96
74372;BME280;62885;51.374;6.170;2023-03-23T13:00:28;100200.28;;;14.00;80.99
74372;BME280;62885;51.374;6.170;2023-03-23T13:05:50;100197.72;;;14.26;80.05
74372;BME280;62885;51.374;6.170;2023-03-23T13:08:25;100187.56;;;14.20;80.15
74372;BME280;62885;51.374;6.170;2023-03-23T13:10:53;100186.75;;;14.37;79.34
74372;BME280;62885;51.374;6.170;2023-03-23T13:13:25;100182.59;;;14.43;79.14
74372;BME280;62885;51.374;6.170;2023-03-23T13:18:35;100200.28;;;14.45;78.34
74372;BME280;62885;51.374;6.170;2023-03-23T13:23:48;100205.13;;;14.42;77.84
74372;BME280;62885;51.374;6.170;2023-03-23T13:26:20;100205.66;;;14.45;78.00
74372;BME280;62885;51.374;6.170;2023-03-23T13:31:38;100206.56;;;14.36;78.61
74372;BME280;62885;51.374;6.170;2023-03-23T13:34:25;100197.63;;;14.35;78.21
74372;BME280;62885;51.374;6.170;2023-03-23T13:36:59;100197.53;;;14.27;78.35
74372;BME280;62885;51.374;6.170;2023-03-23T13:39:29;100200.22;;;14.37;78.50
74372;BME280;62885;51.374;6.170;2023-03-23T13:42:05;100201.41;;;14.25;78.86
74372;BME280;62885;51.374;6.170;2023-03-23T13:50:01;100214.25;;;14.31;78.61
74372;BME280;62885;51.374;6.170;2023-03-23T13:55:48;100193.31;;;14.25;79.85
74372;BME280;62885;51.374;6.170;2023-03-23T13:58:24;100184.91;;;14.37;79.16
74372;BME280;62885;51.374;6.170;2023-03-23T14:01:10;100177.78;;;14.36;80.16
74372;BME280;62885;51.374;6.170;2023-03-23T14:03:39;100171.47;;;14.28;80.97
74372;BME280;62885;51.374;6.170;2023-03-23T14:06:11;100183.50;;;14.51;80.12
74372;BME280;62885;51.374;6.170;2023-03-23T14:08:40;100177.59;;;14.48;79.89
74372;BME280;62885;51.374;6.170;2023-03-23T14:11:15;100176.66;;;14.57;79.91
74372;BME280;62885;51.374;6.170;2023-03-23T14:13:59;100175.97;;;14.72;79.67
74372;BME280;62885;51.374;6.170;2023-03-23T14:16:37;100173.50;;;14.61;78.14
74372;BME280;62885;51.374;6.170;2023-03-23T14:19:03;100188.88;;;14.69;77.48
74372;BME280;62885;51.374;6.170;2023-03-23T14:21:34;100175.84;;;14.82;77.48
74372;BME280;62885;51.374;6.170;2023-03-23T14:24:06;100164.41;;;15.06;76.07
74372;BME280;62885;51.374;6.170;2023-03-23T14:26:34;100169.59;;;15.25;75.88
74372;BME280;62885;51.374;6.170;2023-03-23T14:29:01;100169.97;;;15.38;74.01
74372;BME280;62885;51.374;6.170;2023-03-23T14:31:28;100153.13;;;15.10;72.54
74372;BME280;62885;51.374;6.170;2023-03-23T14:33:56;100155.47;;;15.05;72.10
74372;BME280;62885;51.374;6.170;2023-03-23T14:36:29;100170.22;;;15.19;72.74